• Join FlightAware (Why Join?)
  • Login
  • US Flag 
10:40PM EST


 

Airport Tracker/Info


-or-


 

Live Flight TrackerFlight Track Log ✈ EJA385 ✈ 10-Mar-2012 ✈ KMQJ - KSAN

Flight Track Log - Related Links

Times and Time Zones

All times are in EST time to prevent confusion due to time zone crossing. See the EJA385 flight status page for this flight to view local times or setup timezone preferences in your user account.

Time Position Orientation Groundspeed Altitude Reporting Facility
EST Latitude Longitude Course Direction KTS MPH feet Rate Location/Type
09:34AM 39.8500 -85.8833 194° South 175 201 1,400  Level Indianapolis TRACON
09:35AM 39.8000 -85.9000 218° Southwest 202 232 3,000 1,980 Climbing Indianapolis TRACON
09:36AM 39.7500 -85.9500 265° West 228 262 5,800 3,000 Climbing Indianapolis TRACON
09:37AM 39.7428 -86.0681 267° West 259 298 9,900 3,240 Climbing Indianapolis Center
09:38AM 39.7386 -86.1733 268° West 282 325 13,200 3,240 Climbing Indianapolis Center
09:39AM 39.7358 -86.2892 266° West 299 344 16,400 2,880 Climbing Indianapolis Center
09:40AM 39.7292 -86.3997 266° West 334 384 19,000 2,340 Climbing Indianapolis Center
09:41AM 39.7219 -86.5264 266° West 334 384 21,100 1,800 Climbing Indianapolis Center
09:42AM 39.7142 -86.6608 267° West 356 410 22,600 1,560 Climbing Indianapolis Center
09:43AM 39.7086 -86.7956 266° West 377 434 24,300 1,500 Climbing Indianapolis Center
09:44AM 39.7003 -86.9411 266° West 390 449 25,600 1,260 Climbing Indianapolis Center
09:45AM 39.6917 -87.0889 266° West 405 466 26,900 1,200 Climbing Indianapolis Center
09:46AM 39.6831 -87.2369 267° West 410 472 28,000 1,020 Climbing Indianapolis Center
09:47AM 39.6761 -87.3931 266° West 422 486 29,000 900 Climbing Indianapolis Center
09:49AM 39.6639 -87.6467 266° West 434 499 30,600 900 Climbing Kansas City Center
09:50AM 39.6561 -87.8039 265° West 439 505 31,600 960 Climbing Kansas City Center
09:51AM 39.6458 -87.9614 265° West 444 511 32,600 960 Climbing Kansas City Center
09:52AM 39.6356 -88.1158 266° West 444 511 33,600 960 Climbing Kansas City Center
09:53AM 39.6269 -88.2703 264° West 444 511 34,600 960 Climbing Kansas City Center
09:54AM 39.6142 -88.4250 263° West 449 517 35,600 1,020 Climbing Kansas City Center
09:55AM 39.5975 -88.5908 262° West 444 511 36,700 1,020 Climbing Kansas City Center
09:56AM 39.5819 -88.7428 262° West 430 495 37,700 960 Climbing Kansas City Center
09:57AM 39.5661 -88.8922 264° West 430 495 38,700 960 Climbing Kansas City Center
09:58AM 39.5539 -89.0333 263° West 422 486 39,700 600 Climbing Kansas City Center
09:59AM 39.5397 -89.1797 262° West 416 479 40,000 120 Climbing Kansas City Center
10:00AM 39.5233 -89.3289 264° West 415 478 40,000  Level Kansas City Center
10:01AM 39.5122 -89.4589 262° West 415 478 40,000  Level Kansas City Center
10:02AM 39.4956 -89.6108 263° West 420 483 40,000  Level Kansas City Center
10:03AM 39.4808 -89.7622 262° West 426 490 40,000  Level Kansas City Center
10:04AM 39.4636 -89.9114 264° West 426 490 40,000  Level Kansas City Center
10:05AM 39.4511 -90.0761 261° West 426 490 40,000  Level Kansas City Center
10:06AM 39.4353 -90.2117 261° West 432 497 40,000  Level Kansas City Center
10:07AM 39.4139 -90.3767 262° West 426 490 40,000  Level Kansas City Center
10:08AM 39.3981 -90.5281 262° West 431 496 40,000  Level Kansas City Center
10:09AM 39.3803 -90.6822 262° West 431 496 40,000  Level Kansas City Center
10:10AM 39.3642 -90.8333 262° West 431 496 40,000  Level Kansas City Center
10:11AM 39.3478 -90.9817 262° West 431 496 40,000  Level Kansas City Center
10:12AM 39.3311 -91.1303 261° West 426 490 40,000  Level Kansas City Center
10:13AM 39.3125 -91.2814 262° West 435 501 40,000  Level Kansas City Center
10:14AM 39.2972 -91.4161 261° West 430 495 40,000  Level Kansas City Center
10:15AM 39.2800 -91.5617 261° West 425 489 40,000  Level Kansas City Center
10:16AM 39.2608 -91.7181 262° West 432 497 40,000  Level Kansas City Center
10:17AM 39.2436 -91.8742 261° West 432 497 40,000  Level Kansas City Center
10:18AM 39.2258 -92.0222 261° West 424 488 40,000  Level Kansas City Center
10:19AM 39.2081 -92.1728 260° West 424 488 40,000  Level Kansas City Center
10:20AM 39.1881 -92.3206 259° West 430 495 40,000  Level Kansas City Center
10:21AM 39.1675 -92.4578 261° West 436 502 40,000  Level Kansas City Center
10:22AM 39.1492 -92.6108 261° West 436 502 40,000  Level Kansas City Center
10:23AM 39.1306 -92.7586 261° West 426 490 40,000  Level Kansas City Center
10:24AM 39.1117 -92.9061 259° West 426 490 40,000  Level Kansas City Center
10:25AM 39.0906 -93.0511 260° West 426 490 40,000  Level Kansas City Center
10:26AM 39.0694 -93.1986 261° West 426 490 40,000  Level Kansas City Center
10:27AM 39.0522 -93.3458 259° West 431 496 40,000  Level Kansas City Center
10:28AM 39.0267 -93.5119 259° West 426 490 40,000  Level Kansas City Center
10:29AM 39.0047 -93.6592 261° West 426 490 40,000  Level Kansas City Center
10:30AM 38.9869 -93.7956 260° West 432 497 40,000  Level Kansas City Center
10:31AM 38.9650 -93.9586 259° West 432 497 40,000  Level Kansas City Center
10:32AM 38.9425 -94.1111 260° West 432 497 40,000  Level Kansas City Center
10:33AM 38.9222 -94.2553 259° West 432 497 40,000  Level Kansas City Center
10:34AM 38.9014 -94.3914 261° West 432 497 40,000  Level Kansas City Center
10:35AM 38.8806 -94.5539 258° West 427 491 40,000  Level Kansas City Center
10:36AM 38.8556 -94.7033 260° West 427 491 40,000  Level Kansas City Center
10:37AM 38.8344 -94.8497 258° West 427 491 40,000  Level Kansas City Center
10:38AM 38.8131 -94.9828 259° West 427 491 40,000  Level Kansas City Center
10:39AM 38.7914 -95.1267 260° West 427 491 40,000  Level Kansas City Center
10:40AM 38.7697 -95.2836 258° West 427 491 40,000  Level Kansas City Center
10:41AM 38.7458 -95.4269 259° West 427 491 40,000  Level Kansas City Center
10:42AM 38.7258 -95.5597 259° West 422 486 40,000  Level Kansas City Center
10:43AM 38.7036 -95.7031 260° West 422 486 40,000  Level Kansas City Center
10:44AM 38.6814 -95.8569 259° West 411 473 40,000  Level Kansas City Center
10:45AM 38.6586 -96.0028 259° West 416 479 40,000  Level Kansas City Center
10:46AM 38.6358 -96.1458 258° West 416 479 40,000  Level Kansas City Center
10:47AM 38.6133 -96.2756 259° West 411 473 40,000  Level Kansas City Center
10:48AM 38.5903 -96.4211 258° West 416 479 40,000  Level Kansas City Center
10:49AM 38.5669 -96.5667 257° West 423 487 40,000 420 Level Kansas City Center
10:50AM 38.5389 -96.7278 258° West 423 487 40,900 840 Climbing Kansas City Center
10:51AM 38.5178 -96.8544 258° West 428 493 41,700 900 Climbing Kansas City Center
10:52AM 38.4939 -97.0022 258° West 409 471 42,700 600 Climbing Kansas City Center
10:53AM 38.4722 -97.1369 257° West 397 457 43,000 120 Climbing Kansas City Center
10:54AM 38.4483 -97.2739 257° West 392 451 43,000  Level Kansas City Center
10:55AM 38.4267 -97.3975 258° West 392 451 43,000  Level Kansas City Center
10:56AM 38.4025 -97.5369 258° West 392 451 43,000  Level Kansas City Center
10:57AM 38.3800 -97.6767 256° West 397 457 43,000  Level Kansas City Center
10:58AM 38.3533 -97.8158 258° West 403 464 43,000  Level Kansas City Center
10:59AM 38.3283 -97.9603 258° West 414 476 43,000  Level Kansas City Center
11:00AM 38.3056 -98.0994 256° West 414 476 43,000  Level Kansas City Center
11:01AM 38.2781 -98.2408 257° West 414 476 43,000  Level Kansas City Center
11:02AM 38.2528 -98.3825 257° West 414 476 43,000  Level Kansas City Center
11:03AM 38.2275 -98.5214 257° West 414 476 43,000  Level Kansas City Center
11:04AM 38.2017 -98.6600 256° West 414 476 43,000  Level Kansas City Center
11:05AM 38.1739 -98.8011 257° West 414 476 43,000  Level Kansas City Center
11:06AM 38.1481 -98.9394 257° West 414 476 43,000  Level Kansas City Center
11:07AM 38.1219 -99.0778 256° West 414 476 43,000  Level Kansas City Center
11:08AM 38.0958 -99.2136 256° West 409 471 43,000  Level Kansas City Center
11:09AM 38.0694 -99.3517 256° West 409 471 43,000  Level Kansas City Center
11:10AM 38.0406 -99.4947 256° West 402 463 43,000  Level Kansas City Center
11:11AM 38.0139 -99.6328 256° West 397 457 43,000  Level Kansas City Center
11:12AM 37.9869 -99.7681 257° West 397 457 43,000  Level Kansas City Center
11:13AM 37.9647 -99.8928 256° West 402 463 43,000  Level Kansas City Center
11:14AM 37.9350 -100.0433 256° West 408 470 43,000  Level Kansas City Center
11:15AM 37.9078 -100.1783 256° West 408 470 43,000  Level Kansas City Center
11:16AM 37.8831 -100.3028 256° West 408 470 43,000  Level Kansas City Center
11:17AM 37.8556 -100.4375 256° West 408 470 43,000  Level Kansas City Center
11:18AM 37.8272 -100.5853 257° West 408 470 43,000  Level Kansas City Center
11:19AM 37.8014 -100.7222 254° West 408 470 43,000  Level Kansas City Center
11:20AM 37.7739 -100.8461 254° West 416 479 43,000  Level Kansas City Center
11:21AM 37.7408 -100.9958 256° West 405 466 43,000  Level Kansas City Center
11:22AM 37.7122 -101.1353 255° West 412 474 43,000  Level Kansas City Center
11:23AM 37.6867 -101.2561 255° West 407 468 43,000  Level Kansas City Center
11:24AM 37.6553 -101.4031 255° West 407 468 43,000  Level Kansas City Center
11:26AM 37.6000 -101.6606 256° West 407 468 43,000  Level Albuquerque Center
11:27AM 37.5731 -101.7936 254° West 407 468 43,000  Level Albuquerque Center
11:28AM 37.5417 -101.9294 255° West 407 468 43,000  Level Albuquerque Center
11:29AM 37.5158 -102.0517 254° West 407 468 43,000  Level Albuquerque Center
11:30AM 37.4828 -102.2006 255° West 402 463 43,000  Level Albuquerque Center
11:31AM 37.4531 -102.3358 254° West 402 463 43,000  Level Albuquerque Center
11:32AM 37.4231 -102.4686 255° West 407 468 43,000  Level Albuquerque Center
11:33AM 37.3950 -102.6039 254° West 401 461 43,000  Level Albuquerque Center
11:34AM 37.3650 -102.7389 254° West 401 461 43,000  Level Albuquerque Center
11:35AM 37.3344 -102.8714 255° West 406 467 43,000  Level Albuquerque Center
11:38AM 37.2378 -103.3089 254° West 405 466 43,000  Level Denver Center
11:39AM 37.2081 -103.4353 254° West 405 466 43,000  Level Denver Center
11:40AM 37.1744 -103.5850 252° West 405 466 43,000  Level Denver Center
11:41AM 37.1403 -103.7192 255° West 405 466 43,000  Level Denver Center
11:42AM 37.1100 -103.8581 253° West 405 466 43,000  Level Denver Center
11:43AM 37.0794 -103.9842 253° West 410 472 43,000  Level Denver Center
11:44AM 37.0469 -104.1203 253° West 410 472 43,000  Level Denver Center
11:45AM 37.0106 -104.2722 253° West 410 472 43,000  Level Denver Center
11:46AM 36.9756 -104.4111 254° West 417 480 43,000  Level Denver Center
11:47AM 36.9447 -104.5494 253° West 422 486 43,000  Level Denver Center
11:48AM 36.9133 -104.6747 254° West 422 486 43,000  Level Denver Center
11:49AM 36.8781 -104.8233 253° West 422 486 43,000  Level Denver Center
11:51AM 36.8342 -105.0050 253° West 418 481 43,000  Level Albuquerque Center
11:52AM 36.7953 -105.1592 253° West 423 487 43,000  Level Albuquerque Center
11:53AM 36.7603 -105.2978 254° West 428 493 43,000  Level Albuquerque Center
11:54AM 36.7272 -105.4383 250° West 428 493 43,000  Level Albuquerque Center
11:55AM 36.6914 -105.5586 251° West 428 493 43,000  Level Albuquerque Center
11:56AM 36.6539 -105.6967 254° West 428 493 43,000  Level Albuquerque Center
11:57AM 36.6161 -105.8553 252° West 433 498 43,000  Level Albuquerque Center
11:58AM 36.5783 -105.9983 253° West 444 511 43,000  Level Albuquerque Center
11:59AM 36.5442 -106.1358 251° West 436 502 43,000  Level Albuquerque Center
12:00PM 36.5081 -106.2656 254° West 431 496 43,000  Level Albuquerque Center
12:01PM 36.4717 -106.4186 251° West 426 490 43,000  Level Albuquerque Center
12:02PM 36.4331 -106.5608 252° West 436 502 43,000  Level Albuquerque Center
12:03PM 36.3964 -106.7006 253° West 436 502 43,000  Level Albuquerque Center
12:04PM 36.3636 -106.8300 252° West 436 502 43,000  Level Albuquerque Center
12:05PM 36.3225 -106.9822 251° West 436 502 43,000  Level Albuquerque Center
12:06PM 36.2833 -107.1242 251° West 436 502 43,000  Level Albuquerque Center
12:07PM 36.2458 -107.2608 252° West 436 502 43,000  Level Albuquerque Center
12:08PM 36.2125 -107.3869 252° West 436 502 43,000  Level Albuquerque Center
12:09PM 36.1728 -107.5414 251° West 436 502 43,000  Level Albuquerque Center
12:10PM 36.1328 -107.6828 251° West 436 502 43,000  Level Albuquerque Center
12:11PM 36.0947 -107.8214 252° West 431 496 43,000  Level Albuquerque Center
12:12PM 36.0608 -107.9469 251° West 431 496 43,000  Level Albuquerque Center
12:13PM 36.0183 -108.1008 251° West 431 496 43,000  Level Albuquerque Center
12:14PM 35.9797 -108.2417 250° West 431 496 43,000  Level Albuquerque Center
12:15PM 35.9392 -108.3797 253° West 431 496 43,000  Level Albuquerque Center
12:16PM 35.9067 -108.5075 249° West 431 496 43,000  Level Albuquerque Center
12:17PM 35.8633 -108.6453 252° West 436 502 43,000  Level Albuquerque Center
12:18PM 35.8219 -108.8008 250° West 441 507 43,000  Level Albuquerque Center
12:19PM 35.7806 -108.9408 251° West 441 507 43,000  Level Albuquerque Center
12:20PM 35.7411 -109.0836 251° West 441 507 43,000  Level Albuquerque Center
12:21PM 35.7058 -109.2081 250° West 441 507 43,000  Level Albuquerque Center
12:22PM 35.6594 -109.3628 251° West 441 507 43,000  Level Albuquerque Center
12:23PM 35.6194 -109.5025 250° West 441 507 43,000  Level Albuquerque Center
12:24PM 35.5772 -109.6417 252° West 441 507 43,000  Level Albuquerque Center
12:25PM 35.5436 -109.7658 250° West 441 507 43,000  Level Albuquerque Center
12:26PM 35.4986 -109.9175 252° West 441 507 43,000  Level Albuquerque Center
12:27PM 35.4603 -110.0592 252° West 441 507 43,000  Level Albuquerque Center
12:28PM 35.4236 -110.1956 252° West 441 507 43,000  Level Albuquerque Center
12:29PM 35.3892 -110.3219 252° West 441 507 43,000  Level Albuquerque Center
12:30PM 35.3478 -110.4756 251° West 436 502 43,000  Level Albuquerque Center
12:31PM 35.3086 -110.6117 252° West 436 502 43,000  Level Albuquerque Center
12:32PM 35.2714 -110.7500 252° West 436 502 43,000  Level Albuquerque Center
12:33PM 35.2386 -110.8758 251° West 436 502 43,000  Level Albuquerque Center
12:34PM 35.1944 -111.0314 251° West 436 502 43,000  Level Albuquerque Center
12:35PM 35.1592 -111.1542 251° West 436 502 43,000  Level Albuquerque Center
12:36PM 35.1192 -111.2947 250° West 441 507 43,000  Level Albuquerque Center
12:37PM 35.0792 -111.4322 251° West 436 502 43,000  Level Albuquerque Center
12:38PM 35.0411 -111.5675 252° West 436 502 43,000  Level Albuquerque Center
12:39PM 35.0025 -111.7100 249° West 441 507 43,000  Level Albuquerque Center
12:40PM 34.9625 -111.8369 251° West 426 490 43,000  Level Albuquerque Center
12:41PM 34.9239 -111.9742 250° West 421 484 43,000  Level Albuquerque Center
12:42PM 34.8853 -112.1061 251° West 421 484 43,000  Level Albuquerque Center
12:43PM 34.8464 -112.2406 251° West 421 484 43,000  Level Albuquerque Center
12:44PM 34.8075 -112.3750 250° West 421 484 43,000  Level Albuquerque Center
12:45PM 34.7686 -112.5064 250° West 421 484 43,000  Level Albuquerque Center
12:46PM 34.7272 -112.6428 250° West 421 484 43,000  Level Albuquerque Center
12:47PM 34.6878 -112.7767 250° West 421 484 43,000 -480 Level Albuquerque Center
12:48PM 34.6483 -112.9078 250° West 421 484 42,100 -1,140 Descending Albuquerque Center
12:49PM 34.6061 -113.0489 258° West 426 490 40,800 -1,440 Descending Albuquerque Center
12:50PM 34.5808 -113.1883 269° West 426 490 39,300 -1,500 Descending Albuquerque Center
12:51PM 34.5778 -113.3319 249° West 426 490 37,800 -1,320 Descending Albuquerque Center
12:53PM 34.4878 -113.6161 246° West 449 517 35,400 -1,140 Descending Los Angeles Center
12:54PM 34.4383 -113.7536 246° West 455 524 34,400 -720 Descending Los Angeles Center
12:55PM 34.3867 -113.8936 247° West 460 529 34,000 -300 Descending Los Angeles Center
12:56PM 34.3331 -114.0483 245° Southwest 455 524 33,900 -600 Descending Los Angeles Center
12:57PM 34.2792 -114.1906 247° West 460 529 32,900 -1,020 Descending Los Angeles Center
12:58PM 34.2292 -114.3347 245° Southwest 466 536 31,900 -1,020 Descending Los Angeles Center
12:59PM 34.1747 -114.4767 247° West 466 536 30,900 -900 Descending Los Angeles Center
01:00PM 34.1244 -114.6181 244° Southwest 466 536 30,100 -480 Descending Los Angeles Center
01:01PM 34.0675 -114.7569 242° Southwest 461 531 30,000 -60 Descending Los Angeles Center
01:02PM 34.0064 -114.8958 242° Southwest 466 536 30,000  Level Los Angeles Center
01:03PM 33.9450 -115.0344 243° Southwest 471 542 30,000 -60 Level Los Angeles Center
01:04PM 33.8858 -115.1728 241° Southwest 471 542 29,900 -600 Descending Los Angeles Center
01:05PM 33.8242 -115.3086 242° Southwest 471 542 28,800 -1,200 Descending Los Angeles Center
01:06PM 33.7644 -115.4417 242° Southwest 471 542 27,600 -1,200 Descending Los Angeles Center
01:07PM 33.7044 -115.5744 241° Southwest 466 536 26,400 -1,200 Descending Los Angeles Center
01:08PM 33.6467 -115.7019 239° Southwest 449 517 25,200 -1,140 Descending Los Angeles Center
01:09PM 33.5928 -115.8094 235° Southwest 423 487 24,200 -660 Descending Los Angeles Center
01:10PM 33.5344 -115.9094 235° Southwest 391 450 23,900 -840 Descending Los Angeles Center
01:11PM 33.4783 -116.0067 237° Southwest 377 434 22,600 -1,500 Descending Los Angeles Center
01:12PM 33.4239 -116.1064 234° Southwest 372 428 21,000 -1,620 Descending Los Angeles Center
01:13PM 33.3675 -116.1983 223° Southwest 359 413 19,400 -1,620 Descending Los Angeles Center
01:14PM 33.3008 -116.2728 206° Southwest 352 405 17,800 -1,620 Descending Los Angeles Center
01:15PM 33.2150 -116.3222 207° Southwest 336 387 16,200 -1,560 Descending Los Angeles Center
01:16PM 33.1294 -116.3742 207° Southwest 341 392 14,700 -1,500 Descending Los Angeles Center
01:17PM 33.0522 -116.4211 204° Southwest 335 386 13,300 -1,320 Descending Los Angeles Center
01:18PM 32.9706 -116.4653 212° Southwest 322 371 12,100 -900 Descending Los Angeles Center
01:19PM 32.9142 -116.5072 216° Southwest 317 365 11,600 -840 Descending Los Angeles Center
01:20PM 32.8344 -116.5761 217° Southwest 323 372 10,500 -1,500 Descending Los Angeles Center
01:21PM 32.7717 -116.6325 218° Southwest 306 352 8,600 -1,800 Descending Los Angeles Center
01:22PM 32.7089 -116.6914 246° West 295 339 7,000 -1,380 Descending Los Angeles Center
01:23PM 32.6792 -116.7725 251° West 269 310 5,900 -780 Descending Los Angeles Center
01:24PM 32.6600 -116.8392 277° West 246 283 5,500 -540 Descending Los Angeles Center
01:25PM 32.6667 -116.9000 292° West 172 198 4,900 -960 Descending Southern California TRACON
01:26PM 32.6833 -116.9500 270° West 174 200 3,600 -1,200 Descending Southern California TRACON
01:27PM 32.6833 -117.0167 292° West 170 196 2,500 -900 Descending Southern California TRACON
01:28PM 32.7000 -117.0667 292° West 174 200 1,900 -600 Descending Southern California TRACON
01:29PM 32.7167 -117.1167 286° West 140 161 1,300 -660 Descending Southern California TRACON
01:30PM 32.7247 -117.1506 294° West 151 174 600 -660 Descending Los Angeles Center
01:31PM 32.7369 -117.1828 294° West 135 155 100 -540 Descending Los Angeles Center